sensor_id;sensor_type;location;lat;lon;timestamp;temperature;humidity
61392;DHT22;47261;52.892;5.738;2023-03-25T00:00:16;10.50;99.90
61392;DHT22;47261;52.892;5.738;2023-03-25T00:02:44;10.50;99.90
61392;DHT22;47261;52.892;5.738;2023-03-25T00:05:11;10.50;99.90
61392;DHT22;47261;52.892;5.738;2023-03-25T00:07:39;10.50;99.90
61392;DHT22;47261;52.892;5.738;2023-03-25T00:10:06;10.50;99.90
61392;DHT22;47261;52.892;5.738;2023-03-25T00:12:32;10.50;99.90
61392;DHT22;47261;52.892;5.738;2023-03-25T00:14:58;10.50;99.90
61392;DHT22;47261;52.892;5.738;2023-03-25T00:17:25;10.50;99.90
61392;DHT22;47261;52.892;5.738;2023-03-25T00:19:57;10.50;99.90
61392;DHT22;47261;52.892;5.738;2023-03-25T00:22:25;10.50;99.90
61392;DHT22;47261;52.892;5.738;2023-03-25T00:24:51;10.50;99.90
61392;DHT22;47261;52.892;5.738;2023-03-25T00:27:17;10.40;99.90
61392;DHT22;47261;52.892;5.738;2023-03-25T00:29:44;10.50;99.90
61392;DHT22;47261;52.892;5.738;2023-03-25T00:32:12;10.40;99.90
61392;DHT22;47261;52.892;5.738;2023-03-25T00:34:38;10.40;99.90
61392;DHT22;47261;52.892;5.738;2023-03-25T00:37:09;10.40;99.90
61392;DHT22;47261;52.892;5.738;2023-03-25T00:39:36;10.40;99.90
61392;DHT22;47261;52.892;5.738;2023-03-25T00:42:02;10.40;99.90
61392;DHT22;47261;52.892;5.738;2023-03-25T00:44:29;10.30;99.90
61392;DHT22;47261;52.892;5.738;2023-03-25T00:46:55;10.30;99.90
61392;DHT22;47261;52.892;5.738;2023-03-25T00:49:21;10.30;99.90
61392;DHT22;47261;52.892;5.738;2023-03-25T00:51:52;10.30;99.90
61392;DHT22;47261;52.892;5.738;2023-03-25T00:54:18;10.30;99.90
61392;DHT22;47261;52.892;5.738;2023-03-25T00:56:47;10.40;99.90
61392;DHT22;47261;52.892;5.738;2023-03-25T00:59:13;10.40;99.90
61392;DHT22;47261;52.892;5.738;2023-03-25T01:01:38;10.40;99.90
61392;DHT22;47261;52.892;5.738;2023-03-25T01:04:05;10.30;99.90
61392;DHT22;47261;52.892;5.738;2023-03-25T01:06:38;10.40;99.90
61392;DHT22;47261;52.892;5.738;2023-03-25T01:09:11;10.40;99.90
61392;DHT22;47261;52.892;5.738;2023-03-25T01:11:39;10.30;99.90
61392;DHT22;47261;52.892;5.738;2023-03-25T01:14:07;10.30;99.90
61392;DHT22;47261;52.892;5.738;2023-03-25T01:16:33;10.30;99.90
61392;DHT22;47261;52.892;5.738;2023-03-25T01:18:59;10.30;99.90
61392;DHT22;47261;52.892;5.738;2023-03-25T01:21:25;10.30;99.90
61392;DHT22;47261;52.892;5.738;2023-03-25T01:23:50;10.40;99.90
61392;DHT22;47261;52.892;5.738;2023-03-25T01:26:16;10.30;99.90
61392;DHT22;47261;52.892;5.738;2023-03-25T01:28:43;10.30;99.90
61392;DHT22;47261;52.892;5.738;2023-03-25T01:31:11;10.40;99.90
61392;DHT22;47261;52.892;5.738;2023-03-25T01:33:37;10.30;99.90
61392;DHT22;47261;52.892;5.738;2023-03-25T01:36:04;10.30;99.90
61392;DHT22;47261;52.892;5.738;2023-03-25T01:38:36;10.30;99.90
61392;DHT22;47261;52.892;5.738;2023-03-25T01:41:02;10.30;99.90
61392;DHT22;47261;52.892;5.738;2023-03-25T01:43:29;10.30;99.90
61392;DHT22;47261;52.892;5.738;2023-03-25T01:45:55;10.30;99.90
61392;DHT22;47261;52.892;5.738;2023-03-25T01:48:26;10.30;99.90
61392;DHT22;47261;52.892;5.738;2023-03-25T01:50:59;10.30;99.90
61392;DHT22;47261;52.892;5.738;2023-03-25T01:53:29;10.30;99.90
61392;DHT22;47261;52.892;5.738;2023-03-25T01:55:58;10.30;99.90
61392;DHT22;47261;52.892;5.738;2023-03-25T01:58:28;10.30;99.90
61392;DHT22;47261;52.892;5.738;2023-03-25T02:00:53;10.20;99.90
61392;DHT22;47261;52.892;5.738;2023-03-25T02:03:21;10.30;99.90
61392;DHT22;47261;52.892;5.738;2023-03-25T02:06:08;10.20;99.90
61392;DHT22;47261;52.892;5.738;2023-03-25T02:08:37;10.20;99.90
61392;DHT22;47261;52.892;5.738;2023-03-25T02:11:08;10.20;99.90
61392;DHT22;47261;52.892;5.738;2023-03-25T02:13:36;10.20;99.90
61392;DHT22;47261;52.892;5.738;2023-03-25T02:16:49;10.20;99.90
61392;DHT22;47261;52.892;5.738;2023-03-25T02:19:20;10.20;99.90
61392;DHT22;47261;52.892;5.738;2023-03-25T02:22:01;10.20;99.90
61392;DHT22;47261;52.892;5.738;2023-03-25T02:27:36;10.20;99.90
61392;DHT22;47261;52.892;5.738;2023-03-25T02:42:05;10.30;99.90
61392;DHT22;47261;52.892;5.738;2023-03-25T02:45:22;10.30;99.90
61392;DHT22;47261;52.892;5.738;2023-03-25T02:47:35;10.30;99.90
61392;DHT22;47261;52.892;5.738;2023-03-25T02:50:10;10.30;99.90
61392;DHT22;47261;52.892;5.738;2023-03-25T02:52:43;10.30;99.90
61392;DHT22;47261;52.892;5.738;2023-03-25T02:55:12;10.30;99.90
61392;DHT22;47261;52.892;5.738;2023-03-25T02:57:41;10.30;99.90
61392;DHT22;47261;52.892;5.738;2023-03-25T03:00:09;10.30;99.90
61392;DHT22;47261;52.892;5.738;2023-03-25T03:03:01;10.30;99.90
61392;DHT22;47261;52.892;5.738;2023-03-25T03:05:34;10.30;99.90
61392;DHT22;47261;52.892;5.738;2023-03-25T03:10:59;10.30;99.90
61392;DHT22;47261;52.892;5.738;2023-03-25T03:13:35;10.30;99.90
61392;DHT22;47261;52.892;5.738;2023-03-25T03:16:16;10.30;99.90
61392;DHT22;47261;52.892;5.738;2023-03-25T03:19:11;10.30;99.90
61392;DHT22;47261;52.892;5.738;2023-03-25T03:22:30;10.30;99.90
61392;DHT22;47261;52.892;5.738;2023-03-25T03:27:37;10.30;99.90
61392;DHT22;47261;52.892;5.738;2023-03-25T03:30:16;10.20;99.90
61392;DHT22;47261;52.892;5.738;2023-03-25T03:35:51;10.20;99.90
61392;DHT22;47261;52.892;5.738;2023-03-25T03:38:24;10.20;99.90
61392;DHT22;47261;52.892;5.738;2023-03-25T03:40:55;10.20;99.90
61392;DHT22;47261;52.892;5.738;2023-03-25T03:43:29;10.20;99.90
61392;DHT22;47261;52.892;5.738;2023-03-25T03:45:59;10.20;99.90
61392;DHT22;47261;52.892;5.738;2023-03-25T03:48:46;10.30;99.90
61392;DHT22;47261;52.892;5.738;2023-03-25T03:51:37;10.30;99.90
61392;DHT22;47261;52.892;5.738;2023-03-25T03:54:09;10.30;99.90
61392;DHT22;47261;52.892;5.738;2023-03-25T03:56:54;10.20;99.90
61392;DHT22;47261;52.892;5.738;2023-03-25T03:59:35;10.20;99.90
61392;DHT22;47261;52.892;5.738;2023-03-25T04:02:07;10.20;99.90
61392;DHT22;47261;52.892;5.738;2023-03-25T04:04:36;10.20;99.90
61392;DHT22;47261;52.892;5.738;2023-03-25T04:07:13;10.20;99.90
61392;DHT22;47261;52.892;5.738;2023-03-25T04:12:14;10.20;99.90
61392;DHT22;47261;52.892;5.738;2023-03-25T04:14:41;10.20;99.90
61392;DHT22;47261;52.892;5.738;2023-03-25T04:17:07;10.20;99.90
61392;DHT22;47261;52.892;5.738;2023-03-25T04:19:33;10.20;99.90
61392;DHT22;47261;52.892;5.738;2023-03-25T04:22:00;10.20;99.90
61392;DHT22;47261;52.892;5.738;2023-03-25T04:24:27;10.20;99.90
61392;DHT22;47261;52.892;5.738;2023-03-25T04:26:59;10.20;99.90
61392;DHT22;47261;52.892;5.738;2023-03-25T04:29:32;10.10;99.90
61392;DHT22;47261;52.892;5.738;2023-03-25T04:31:59;10.10;99.90
61392;DHT22;47261;52.892;5.738;2023-03-25T04:34:26;10.10;99.90
61392;DHT22;47261;52.892;5.738;2023-03-25T04:36:52;10.10;99.90
61392;DHT22;47261;52.892;5.738;2023-03-25T04:39:18;10.00;99.90
61392;DHT22;47261;52.892;5.738;2023-03-25T04:41:50;10.00;99.90
61392;DHT22;47261;52.892;5.738;2023-03-25T04:44:18;10.00;99.90
61392;DHT22;47261;52.892;5.738;2023-03-25T04:46:46;10.00;99.90
61392;DHT22;47261;52.892;5.738;2023-03-25T04:49:20;9.90;99.90
61392;DHT22;47261;52.892;5.738;2023-03-25T04:51:47;9.90;99.90
61392;DHT22;47261;52.892;5.738;2023-03-25T04:54:19;9.90;99.90
61392;DHT22;47261;52.892;5.738;2023-03-25T04:56:45;9.90;99.90
61392;DHT22;47261;52.892;5.738;2023-03-25T04:59:16;9.80;99.90
61392;DHT22;47261;52.892;5.738;2023-03-25T05:01:43;9.90;99.90
61392;DHT22;47261;52.892;5.738;2023-03-25T05:04:11;9.80;99.90
61392;DHT22;47261;52.892;5.738;2023-03-25T05:06:40;9.90;99.90
61392;DHT22;47261;52.892;5.738;2023-03-25T05:09:14;9.90;99.90
61392;DHT22;47261;52.892;5.738;2023-03-25T05:11:41;9.80;99.90
61392;DHT22;47261;52.892;5.738;2023-03-25T05:14:11;9.80;99.90
61392;DHT22;47261;52.892;5.738;2023-03-25T05:16:37;9.80;99.90
61392;DHT22;47261;52.892;5.738;2023-03-25T05:19:04;9.90;99.90
61392;DHT22;47261;52.892;5.738;2023-03-25T05:21:34;9.90;99.90
61392;DHT22;47261;52.892;5.738;2023-03-25T05:24:01;9.90;99.90
61392;DHT22;47261;52.892;5.738;2023-03-25T05:26:27;9.90;99.90
61392;DHT22;47261;52.892;5.738;2023-03-25T05:29:03;10.00;99.90
61392;DHT22;47261;52.892;5.738;2023-03-25T05:31:29;10.00;99.90
61392;DHT22;47261;52.892;5.738;2023-03-25T05:33:55;10.00;99.90
61392;DHT22;47261;52.892;5.738;2023-03-25T05:36:21;10.00;99.90
61392;DHT22;47261;52.892;5.738;2023-03-25T05:38:53;10.00;99.90
61392;DHT22;47261;52.892;5.738;2023-03-25T05:41:20;10.00;99.90
61392;DHT22;47261;52.892;5.738;2023-03-25T05:43:47;10.00;99.90
61392;DHT22;47261;52.892;5.738;2023-03-25T05:46:17;10.00;99.90
61392;DHT22;47261;52.892;5.738;2023-03-25T05:48:44;10.00;99.90
61392;DHT22;47261;52.892;5.738;2023-03-25T05:51:17;10.00;99.90
61392;DHT22;47261;52.892;5.738;2023-03-25T05:53:46;10.00;99.90
61392;DHT22;47261;52.892;5.738;2023-03-25T05:56:16;10.00;99.90
61392;DHT22;47261;52.892;5.738;2023-03-25T05:58:46;10.00;99.90
61392;DHT22;47261;52.892;5.738;2023-03-25T06:01:13;10.00;99.90
61392;DHT22;47261;52.892;5.738;2023-03-25T06:03:40;10.00;99.90
61392;DHT22;47261;52.892;5.738;2023-03-25T06:06:10;10.00;99.90
61392;DHT22;47261;52.892;5.738;2023-03-25T06:08:42;10.00;99.90
61392;DHT22;47261;52.892;5.738;2023-03-25T06:11:09;10.00;99.90
61392;DHT22;47261;52.892;5.738;2023-03-25T06:13:35;10.00;99.90
61392;DHT22;47261;52.892;5.738;2023-03-25T06:16:04;10.00;99.90
61392;DHT22;47261;52.892;5.738;2023-03-25T06:18:31;10.00;99.90
61392;DHT22;47261;52.892;5.738;2023-03-25T06:20:57;10.00;99.90
61392;DHT22;47261;52.892;5.738;2023-03-25T06:23:24;10.10;99.90
61392;DHT22;47261;52.892;5.738;2023-03-25T06:25:51;10.10;99.90
61392;DHT22;47261;52.892;5.738;2023-03-25T06:28:17;10.10;99.90
61392;DHT22;47261;52.892;5.738;2023-03-25T06:30:47;10.10;99.90
61392;DHT22;47261;52.892;5.738;2023-03-25T06:33:14;10.00;99.90
61392;DHT22;47261;52.892;5.738;2023-03-25T06:35:41;10.00;99.90
61392;DHT22;47261;52.892;5.738;2023-03-25T06:38:09;10.00;99.90
61392;DHT22;47261;52.892;5.738;2023-03-25T06:40:36;10.10;99.90
61392;DHT22;47261;52.892;5.738;2023-03-25T06:43:05;10.10;99.90
61392;DHT22;47261;52.892;5.738;2023-03-25T06:45:34;10.10;99.90
61392;DHT22;47261;52.892;5.738;2023-03-25T06:48:00;10.10;99.90
61392;DHT22;47261;52.892;5.738;2023-03-25T06:50:26;10.10;99.90
61392;DHT22;47261;52.892;5.738;2023-03-25T06:52:52;10.10;99.90
61392;DHT22;47261;52.892;5.738;2023-03-25T06:55:17;10.10;99.90
61392;DHT22;47261;52.892;5.738;2023-03-25T06:57:43;10.10;99.90
61392;DHT22;47261;52.892;5.738;2023-03-25T07:00:09;10.10;99.90
61392;DHT22;47261;52.892;5.738;2023-03-25T07:02:38;10.00;99.90
61392;DHT22;47261;52.892;5.738;2023-03-25T07:05:05;9.90;99.90
61392;DHT22;47261;52.892;5.738;2023-03-25T07:07:31;9.90;99.90
61392;DHT22;47261;52.892;5.738;2023-03-25T07:09:56;9.80;99.90
61392;DHT22;47261;52.892;5.738;2023-03-25T07:12:22;9.70;99.90
61392;DHT22;47261;52.892;5.738;2023-03-25T07:14:55;9.70;99.90
61392;DHT22;47261;52.892;5.738;2023-03-25T07:17:22;9.60;99.90
61392;DHT22;47261;52.892;5.738;2023-03-25T07:19:48;9.60;99.90
61392;DHT22;47261;52.892;5.738;2023-03-25T07:22:15;9.50;99.90
61392;DHT22;47261;52.892;5.738;2023-03-25T07:24:41;9.50;99.90
61392;DHT22;47261;52.892;5.738;2023-03-25T07:27:12;9.40;99.90
61392;DHT22;47261;52.892;5.738;2023-03-25T07:29:38;9.40;99.90
61392;DHT22;47261;52.892;5.738;2023-03-25T07:32:05;9.30;99.90
61392;DHT22;47261;52.892;5.738;2023-03-25T07:34:30;9.30;99.90
61392;DHT22;47261;52.892;5.738;2023-03-25T07:36:56;9.30;99.90
61392;DHT22;47261;52.892;5.738;2023-03-25T07:39:22;9.30;99.90
61392;DHT22;47261;52.892;5.738;2023-03-25T07:41:50;9.30;99.90
61392;DHT22;47261;52.892;5.738;2023-03-25T07:44:16;9.40;99.90
61392;DHT22;47261;52.892;5.738;2023-03-25T07:46:45;9.40;99.90
61392;DHT22;47261;52.892;5.738;2023-03-25T07:49:11;9.50;99.90
61392;DHT22;47261;52.892;5.738;2023-03-25T07:51:37;9.60;99.90
61392;DHT22;47261;52.892;5.738;2023-03-25T07:54:03;9.70;99.90
61392;DHT22;47261;52.892;5.738;2023-03-25T07:56:29;9.70;99.90
61392;DHT22;47261;52.892;5.738;2023-03-25T07:58:54;9.80;99.90
61392;DHT22;47261;52.892;5.738;2023-03-25T08:01:20;9.80;99.90
61392;DHT22;47261;52.892;5.738;2023-03-25T08:03:46;9.80;99.90
61392;DHT22;47261;52.892;5.738;2023-03-25T08:06:11;9.80;99.90
61392;DHT22;47261;52.892;5.738;2023-03-25T08:08:37;9.80;99.90
61392;DHT22;47261;52.892;5.738;2023-03-25T08:11:03;9.90;99.90
61392;DHT22;47261;52.892;5.738;2023-03-25T08:13:29;10.00;99.90
61392;DHT22;47261;52.892;5.738;2023-03-25T08:15:55;10.10;99.90
61392;DHT22;47261;52.892;5.738;2023-03-25T08:18:21;10.20;99.90
61392;DHT22;47261;52.892;5.738;2023-03-25T08:20:48;10.20;99.90
61392;DHT22;47261;52.892;5.738;2023-03-25T08:23:16;10.30;99.90
61392;DHT22;47261;52.892;5.738;2023-03-25T08:25:43;10.50;99.90
61392;DHT22;47261;52.892;5.738;2023-03-25T08:28:09;10.50;99.90
61392;DHT22;47261;52.892;5.738;2023-03-25T08:30:36;10.50;99.90
61392;DHT22;47261;52.892;5.738;2023-03-25T08:33:03;10.60;99.90
61392;DHT22;47261;52.892;5.738;2023-03-25T08:35:29;10.60;99.90
61392;DHT22;47261;52.892;5.738;2023-03-25T08:37:55;10.70;99.90
61392;DHT22;47261;52.892;5.738;2023-03-25T08:40:21;10.70;99.90
61392;DHT22;47261;52.892;5.738;2023-03-25T08:42:46;10.60;99.90
61392;DHT22;47261;52.892;5.738;2023-03-25T08:45:12;10.60;99.90
61392;DHT22;47261;52.892;5.738;2023-03-25T08:47:39;10.70;99.90
61392;DHT22;47261;52.892;5.738;2023-03-25T08:50:07;10.70;99.90
61392;DHT22;47261;52.892;5.738;2023-03-25T08:52:32;10.70;99.90
61392;DHT22;47261;52.892;5.738;2023-03-25T08:54:58;10.70;99.80
61392;DHT22;47261;52.892;5.738;2023-03-25T08:57:24;10.80;99.90
61392;DHT22;47261;52.892;5.738;2023-03-25T08:59:49;10.90;99.90
61392;DHT22;47261;52.892;5.738;2023-03-25T09:02:15;11.00;99.60
61392;DHT22;47261;52.892;5.738;2023-03-25T09:04:41;11.00;99.90
61392;DHT22;47261;52.892;5.738;2023-03-25T09:07:07;11.10;99.70
61392;DHT22;47261;52.892;5.738;2023-03-25T09:09:36;11.10;99.60
61392;DHT22;47261;52.892;5.738;2023-03-25T09:12:03;11.00;99.40
61392;DHT22;47261;52.892;5.738;2023-03-25T09:14:29;11.10;99.80
61392;DHT22;47261;52.892;5.738;2023-03-25T09:16:55;11.20;99.60
61392;DHT22;47261;52.892;5.738;2023-03-25T09:19:21;11.20;99.20
61392;DHT22;47261;52.892;5.738;2023-03-25T09:21:46;11.20;98.90
61392;DHT22;47261;52.892;5.738;2023-03-25T09:24:12;11.10;98.90
61392;DHT22;47261;52.892;5.738;2023-03-25T09:26:38;11.20;99.10
61392;DHT22;47261;52.892;5.738;2023-03-25T09:29:04;11.10;98.90
61392;DHT22;47261;52.892;5.738;2023-03-25T09:31:29;11.10;99.00
61392;DHT22;47261;52.892;5.738;2023-03-25T09:33:55;11.10;98.80
61392;DHT22;47261;52.892;5.738;2023-03-25T09:36:21;11.10;98.90
61392;DHT22;47261;52.892;5.738;2023-03-25T09:38:46;11.10;98.70
61392;DHT22;47261;52.892;5.738;2023-03-25T09:44:24;11.10;98.80
61392;DHT22;47261;52.892;5.738;2023-03-25T09:46:52;11.10;98.40
61392;DHT22;47261;52.892;5.738;2023-03-25T09:49:21;11.20;98.90
61392;DHT22;47261;52.892;5.738;2023-03-25T09:51:50;11.30;98.90
61392;DHT22;47261;52.892;5.738;2023-03-25T09:54:34;11.40;98.20
61392;DHT22;47261;52.892;5.738;2023-03-25T09:57:05;11.40;98.40
61392;DHT22;47261;52.892;5.738;2023-03-25T09:59:46;11.50;98.60
61392;DHT22;47261;52.892;5.738;2023-03-25T10:02:39;11.60;98.70
61392;DHT22;47261;52.892;5.738;2023-03-25T10:05:20;11.60;98.20
61392;DHT22;47261;52.892;5.738;2023-03-25T10:08:10;11.60;97.90
61392;DHT22;47261;52.892;5.738;2023-03-25T10:19:46;11.60;97.20
61392;DHT22;47261;52.892;5.738;2023-03-25T10:22:26;11.50;97.60
61392;DHT22;47261;52.892;5.738;2023-03-25T10:24:59;11.60;97.60
61392;DHT22;47261;52.892;5.738;2023-03-25T10:27:37;11.60;97.70
61392;DHT22;47261;52.892;5.738;2023-03-25T10:30:23;11.70;97.00
61392;DHT22;47261;52.892;5.738;2023-03-25T10:32:57;11.60;96.90
61392;DHT22;47261;52.892;5.738;2023-03-25T10:35:36;11.70;97.10
61392;DHT22;47261;52.892;5.738;2023-03-25T10:38:21;11.70;97.00
61392;DHT22;47261;52.892;5.738;2023-03-25T10:41:12;11.80;97.50
61392;DHT22;47261;52.892;5.738;2023-03-25T10:43:40;11.80;97.20
61392;DHT22;47261;52.892;5.738;2023-03-25T10:48:52;12.00;97.00
61392;DHT22;47261;52.892;5.738;2023-03-25T10:51:21;12.00;96.60
61392;DHT22;47261;52.892;5.738;2023-03-25T10:53:51;12.10;96.40
61392;DHT22;47261;52.892;5.738;2023-03-25T10:56:21;12.10;96.20
61392;DHT22;47261;52.892;5.738;2023-03-25T10:58:54;12.20;96.90
61392;DHT22;47261;52.892;5.738;2023-03-25T11:01:35;12.30;96.50
61392;DHT22;47261;52.892;5.738;2023-03-25T11:04:04;12.40;96.10
61392;DHT22;47261;52.892;5.738;2023-03-25T11:06:33;12.40;94.80
61392;DHT22;47261;52.892;5.738;2023-03-25T11:11:38;12.50;95.70
61392;DHT22;47261;52.892;5.738;2023-03-25T11:14:04;12.70;95.40
61392;DHT22;47261;52.892;5.738;2023-03-25T11:16:32;12.70;94.70
61392;DHT22;47261;52.892;5.738;2023-03-25T11:19:02;12.80;95.10
61392;DHT22;47261;52.892;5.738;2023-03-25T11:21:32;12.90;95.20
61392;DHT22;47261;52.892;5.738;2023-03-25T11:24:00;13.00;93.90
61392;DHT22;47261;52.892;5.738;2023-03-25T11:26:36;12.90;93.90
61392;DHT22;47261;52.892;5.738;2023-03-25T11:29:10;12.90;94.30
61392;DHT22;47261;52.892;5.738;2023-03-25T11:31:37;12.90;94.40
61392;DHT22;47261;52.892;5.738;2023-03-25T11:36:34;13.00;93.60
61392;DHT22;47261;52.892;5.738;2023-03-25T11:39:02;12.80;93.90
61392;DHT22;47261;52.892;5.738;2023-03-25T11:41:35;12.70;93.90
61392;DHT22;47261;52.892;5.738;2023-03-25T11:44:04;12.70;94.60
61392;DHT22;47261;52.892;5.738;2023-03-25T11:46:31;12.70;93.90
61392;DHT22;47261;52.892;5.738;2023-03-25T11:49:08;12.60;94.30
61392;DHT22;47261;52.892;5.738;2023-03-25T11:51:34;12.60;94.80
61392;DHT22;47261;52.892;5.738;2023-03-25T11:54:05;12.70;94.50
61392;DHT22;47261;52.892;5.738;2023-03-25T11:56:34;12.80;94.30
61392;DHT22;47261;52.892;5.738;2023-03-25T11:59:02;12.90;94.20
61392;DHT22;47261;52.892;5.738;2023-03-25T12:01:45;12.90;94.20
61392;DHT22;47261;52.892;5.738;2023-03-25T12:04:20;13.00;94.10
61392;DHT22;47261;52.892;5.738;2023-03-25T12:06:56;13.10;94.40
61392;DHT22;47261;52.892;5.738;2023-03-25T12:09:23;13.00;92.90
61392;DHT22;47261;52.892;5.738;2023-03-25T12:14:44;12.80;94.40
61392;DHT22;47261;52.892;5.738;2023-03-25T12:34:16;13.30;93.30
61392;DHT22;47261;52.892;5.738;2023-03-25T12:36:57;13.40;93.50
61392;DHT22;47261;52.892;5.738;2023-03-25T12:42:41;13.20;93.30
61392;DHT22;47261;52.892;5.738;2023-03-25T12:47:59;13.00;94.00
61392;DHT22;47261;52.892;5.738;2023-03-25T12:53:39;13.10;93.70
61392;DHT22;47261;52.892;5.738;2023-03-25T12:56:12;13.10;93.00
61392;DHT22;47261;52.892;5.738;2023-03-25T13:07:10;12.90;92.50
61392;DHT22;47261;52.892;5.738;2023-03-25T13:12:32;12.90;92.80
61392;DHT22;47261;52.892;5.738;2023-03-25T13:15:41;12.90;93.50
61392;DHT22;47261;52.892;5.738;2023-03-25T13:23:26;13.00;93.40
61392;DHT22;47261;52.892;5.738;2023-03-25T13:25:58;12.90;92.50
61392;DHT22;47261;52.892;5.738;2023-03-25T13:28:31;12.60;93.10
61392;DHT22;47261;52.892;5.738;2023-03-25T13:31:17;12.40;93.60
61392;DHT22;47261;52.892;5.738;2023-03-25T13:36:33;12.00;94.50
61392;DHT22;47261;52.892;5.738;2023-03-25T13:39:09;11.80;95.50
61392;DHT22;47261;52.892;5.738;2023-03-25T13:41:51;11.50;96.40
61392;DHT22;47261;52.892;5.738;2023-03-25T13:44:27;11.20;97.60
61392;DHT22;47261;52.892;5.738;2023-03-25T13:47:04;10.90;98.60
61392;DHT22;47261;52.892;5.738;2023-03-25T13:52:06;10.60;99.90
61392;DHT22;47261;52.892;5.738;2023-03-25T13:55:18;10.30;99.90
61392;DHT22;47261;52.892;5.738;2023-03-25T14:00:27;9.90;99.90
61392;DHT22;47261;52.892;5.738;2023-03-25T14:11:43;9.60;99.90
61392;DHT22;47261;52.892;5.738;2023-03-25T14:14:37;9.60;99.90
61392;DHT22;47261;52.892;5.738;2023-03-25T14:17:04;9.70;99.90
61392;DHT22;47261;52.892;5.738;2023-03-25T14:19:37;9.80;99.90
61392;DHT22;47261;52.892;5.738;2023-03-25T14:22:12;10.00;99.90
61392;DHT22;47261;52.892;5.738;2023-03-25T14:24:38;10.10;99.90
61392;DHT22;47261;52.892;5.738;2023-03-25T14:27:36;10.30;99.90
61392;DHT22;47261;52.892;5.738;2023-03-25T14:30:20;10.40;99.90
61392;DHT22;47261;52.892;5.738;2023-03-25T14:32:47;10.60;99.90
61392;DHT22;47261;52.892;5.738;2023-03-25T14:45:59;11.30;99.90
61392;DHT22;47261;52.892;5.738;2023-03-25T14:48:30;11.30;99.90
61392;DHT22;47261;52.892;5.738;2023-03-25T14:56:36;10.90;99.90
61392;DHT22;47261;52.892;5.738;2023-03-25T14:59:16;10.90;99.90
61392;DHT22;47261;52.892;5.738;2023-03-25T15:01:43;10.90;99.90
61392;DHT22;47261;52.892;5.738;2023-03-25T15:07:17;10.80;99.40
61392;DHT22;47261;52.892;5.738;2023-03-25T15:09:53;10.60;98.60
61392;DHT22;47261;52.892;5.738;2023-03-25T15:12:23;10.60;98.90
61392;DHT22;47261;52.892;5.738;2023-03-25T15:14:54;10.60;99.30
61392;DHT22;47261;52.892;5.738;2023-03-25T15:17:43;10.60;99.40
61392;DHT22;47261;52.892;5.738;2023-03-25T15:20:24;10.60;99.60
61392;DHT22;47261;52.892;5.738;2023-03-25T15:26:40;10.80;99.90
61392;DHT22;47261;52.892;5.738;2023-03-25T15:40:20;11.00;99.60
61392;DHT22;47261;52.892;5.738;2023-03-25T15:56:59;10.80;99.10
61392;DHT22;47261;52.892;5.738;2023-03-25T16:02:02;10.70;99.80
61392;DHT22;47261;52.892;5.738;2023-03-25T16:04:42;10.70;99.90
61392;DHT22;47261;52.892;5.738;2023-03-25T16:07:12;10.60;99.90
61392;DHT22;47261;52.892;5.738;2023-03-25T16:09:43;10.60;99.90
61392;DHT22;47261;52.892;5.738;2023-03-25T16:12:10;10.60;99.90
61392;DHT22;47261;52.892;5.738;2023-03-25T16:14:37;10.60;99.90
61392;DHT22;47261;52.892;5.738;2023-03-25T16:17:05;10.60;99.90
61392;DHT22;47261;52.892;5.738;2023-03-25T16:19:39;10.70;99.90
61392;DHT22;47261;52.892;5.738;2023-03-25T16:22:34;10.70;99.90
61392;DHT22;47261;52.892;5.738;2023-03-25T16:25:10;10.70;99.90
61392;DHT22;47261;52.892;5.738;2023-03-25T16:27:42;10.70;99.90
61392;DHT22;47261;52.892;5.738;2023-03-25T16:32:44;10.70;99.90
61392;DHT22;47261;52.892;5.738;2023-03-25T16:35:40;10.70;99.90
61392;DHT22;47261;52.892;5.738;2023-03-25T16:38:10;10.70;99.90
61392;DHT22;47261;52.892;5.738;2023-03-25T16:40:40;10.70;99.80
61392;DHT22;47261;52.892;5.738;2023-03-25T16:45:44;10.60;99.80
61392;DHT22;47261;52.892;5.738;2023-03-25T16:48:40;10.60;99.70
61392;DHT22;47261;52.892;5.738;2023-03-25T16:51:27;10.60;99.90
61392;DHT22;47261;52.892;5.738;2023-03-25T16:53:54;10.60;99.90
61392;DHT22;47261;52.892;5.738;2023-03-25T16:56:36;10.60;99.90
61392;DHT22;47261;52.892;5.738;2023-03-25T16:59:27;10.60;99.90
61392;DHT22;47261;52.892;5.738;2023-03-25T17:01:55;10.60;99.90
61392;DHT22;47261;52.892;5.738;2023-03-25T17:04:24;10.60;99.90
61392;DHT22;47261;52.892;5.738;2023-03-25T17:06:59;10.60;99.60
61392;DHT22;47261;52.892;5.738;2023-03-25T17:09:28;10.60;99.60
61392;DHT22;47261;52.892;5.738;2023-03-25T17:12:00;10.50;99.80
61392;DHT22;47261;52.892;5.738;2023-03-25T17:14:30;10.50;99.90
61392;DHT22;47261;52.892;5.738;2023-03-25T17:17:02;10.50;99.90
61392;DHT22;47261;52.892;5.738;2023-03-25T17:19:31;10.40;99.80
61392;DHT22;47261;52.892;5.738;2023-03-25T17:22:04;10.40;99.90
61392;DHT22;47261;52.892;5.738;2023-03-25T17:24:39;10.30;99.90
61392;DHT22;47261;52.892;5.738;2023-03-25T17:27:26;10.30;99.90
61392;DHT22;47261;52.892;5.738;2023-03-25T17:29:58;10.30;99.90
61392;DHT22;47261;52.892;5.738;2023-03-25T17:32:25;10.20;99.90
61392;DHT22;47261;52.892;5.738;2023-03-25T17:35:04;10.20;99.90
61392;DHT22;47261;52.892;5.738;2023-03-25T17:37:31;10.20;99.90
61392;DHT22;47261;52.892;5.738;2023-03-25T17:40:00;10.10;99.90
61392;DHT22;47261;52.892;5.738;2023-03-25T17:42:30;10.10;99.90
61392;DHT22;47261;52.892;5.738;2023-03-25T17:44:57;10.10;99.90
61392;DHT22;47261;52.892;5.738;2023-03-25T17:47:23;10.10;99.90
61392;DHT22;47261;52.892;5.738;2023-03-25T17:49:51;10.10;99.90
61392;DHT22;47261;52.892;5.738;2023-03-25T17:52:17;10.10;99.90
61392;DHT22;47261;52.892;5.738;2023-03-25T17:54:44;10.00;99.90
61392;DHT22;47261;52.892;5.738;2023-03-25T17:57:16;10.00;99.90
61392;DHT22;47261;52.892;5.738;2023-03-25T17:59:42;10.00;99.90
61392;DHT22;47261;52.892;5.738;2023-03-25T18:02:13;10.00;99.90
61392;DHT22;47261;52.892;5.738;2023-03-25T18:04:39;10.00;99.90
61392;DHT22;47261;52.892;5.738;2023-03-25T18:07:05;10.00;99.90
61392;DHT22;47261;52.892;5.738;2023-03-25T18:09:30;10.00;99.90
61392;DHT22;47261;52.892;5.738;2023-03-25T18:11:57;10.00;99.90
61392;DHT22;47261;52.892;5.738;2023-03-25T18:14:24;10.00;99.90
61392;DHT22;47261;52.892;5.738;2023-03-25T18:16:50;10.00;99.90
61392;DHT22;47261;52.892;5.738;2023-03-25T18:19:19;10.00;99.90
61392;DHT22;47261;52.892;5.738;2023-03-25T18:21:45;9.90;99.90
61392;DHT22;47261;52.892;5.738;2023-03-25T18:24:12;9.90;99.90
61392;DHT22;47261;52.892;5.738;2023-03-25T18:26:39;9.90;99.90
61392;DHT22;47261;52.892;5.738;2023-03-25T18:29:19;9.90;99.90
61392;DHT22;47261;52.892;5.738;2023-03-25T18:31:46;9.90;99.90
61392;DHT22;47261;52.892;5.738;2023-03-25T18:34:12;9.80;99.90
61392;DHT22;47261;52.892;5.738;2023-03-25T18:36:39;9.80;99.90
61392;DHT22;47261;52.892;5.738;2023-03-25T18:39:05;9.80;99.90